createdAt,value
2019-05-23T00:02:22.219Z,100662.06
2019-05-23T00:04:55.553Z,100656.06
2019-05-23T00:07:25.529Z,100654.95
2019-05-23T00:09:52.921Z,100649.33
2019-05-23T00:12:40.471Z,100655.04
2019-05-23T00:15:14.440Z,100655.91
2019-05-23T00:17:42.898Z,100651.92
2019-05-23T00:20:11.046Z,100658.34
2019-05-23T00:22:38.905Z,100660.83
2019-05-23T00:25:07.463Z,100656.72
2019-05-23T00:27:36.353Z,100655.88
2019-05-23T00:30:04.981Z,100654.19
2019-05-23T00:32:46.271Z,100649.98
2019-05-23T00:35:14.416Z,100649.00
2019-05-23T00:37:43.012Z,100648.15
2019-05-23T00:40:12.507Z,100646.16
2019-05-23T00:42:40.430Z,100646.05
2019-05-23T00:45:09.866Z,100647.27
2019-05-23T00:47:38.893Z,100645.09
2019-05-23T00:50:08.036Z,100647.75
2019-05-23T00:52:37.799Z,100642.20
2019-05-23T00:55:05.718Z,100649.98
2019-05-23T00:57:34.004Z,100650.91
2019-05-23T01:00:01.882Z,100654.37
2019-05-23T01:02:31.386Z,100646.22
2019-05-23T01:04:58.670Z,100646.27
2019-05-23T01:07:26.468Z,100644.98
2019-05-23T01:09:53.791Z,100645.42
2019-05-23T01:12:23.935Z,100644.14
2019-05-23T01:14:51.503Z,100646.75
2019-05-23T01:17:20.254Z,100650.26
2019-05-23T01:19:52.342Z,100646.38
2019-05-23T01:22:20.934Z,100653.34
2019-05-23T01:24:52.642Z,100655.50
2019-05-23T01:27:20.276Z,100655.93
2019-05-23T01:29:50.232Z,100657.66
2019-05-23T01:32:41.790Z,100659.81
2019-05-23T01:35:10.561Z,100654.30
2019-05-23T01:37:38.851Z,100651.67
2019-05-23T01:40:08.586Z,100658.14
2019-05-23T01:42:36.252Z,100659.43
2019-05-23T01:45:05.652Z,100657.70
2019-05-23T01:47:34.042Z,100655.98
2019-05-23T01:50:01.781Z,100651.24
2019-05-23T01:52:29.410Z,100652.11
2019-05-23T01:54:57.138Z,100649.12
2019-05-23T01:57:24.828Z,100652.14
2019-05-23T02:00:08.086Z,100649.55
2019-05-23T02:02:22.376Z,100655.59
2019-05-23T02:04:50.387Z,100662.05
2019-05-23T02:07:19.884Z,100653.86
2019-05-23T02:09:47.781Z,100653.86
2019-05-23T02:12:16.254Z,100655.14
2019-05-23T02:14:45.285Z,100655.56
2019-05-23T02:17:13.270Z,100652.56
2019-05-23T02:19:40.960Z,100656.85
2019-05-23T02:22:11.750Z,100652.55
2019-05-23T02:24:39.513Z,100648.25
2019-05-23T02:27:09.419Z,100652.12
2019-05-23T02:29:37.519Z,100646.53
2019-05-23T02:32:06.566Z,100640.51
2019-05-23T02:34:34.679Z,100634.88
2019-05-23T02:37:03.872Z,100635.34
2019-05-23T02:39:41.858Z,100639.21
2019-05-23T02:42:40.422Z,100635.33
2019-05-23T02:45:10.611Z,100632.31
2019-05-23T02:47:44.601Z,100633.59
2019-05-23T02:50:35.811Z,100630.16
2019-05-23T02:53:05.229Z,100627.55
2019-05-23T02:55:38.607Z,100630.58
2019-05-23T02:58:38.087Z,100624.14
2019-05-23T03:01:35.642Z,100627.12
2019-05-23T03:04:07.472Z,100622.81
2019-05-23T03:06:37.543Z,100617.22
2019-05-23T03:09:06.758Z,100618.51
2019-05-23T03:11:40.018Z,100619.38
2019-05-23T03:14:11.190Z,100615.95
2019-05-23T03:16:43.569Z,100617.20
2019-05-23T03:19:22.689Z,100615.07
2019-05-23T03:21:53.515Z,100620.23
2019-05-23T03:24:21.614Z,100622.80
2019-05-23T03:27:21.687Z,100615.48
2019-05-23T03:29:51.316Z,100613.77
2019-05-23T03:32:39.417Z,100611.21
2019-05-23T03:35:12.942Z,100614.23
2019-05-23T03:37:40.608Z,100614.66
2019-05-23T03:40:10.246Z,100615.93
2019-05-23T03:42:38.052Z,100612.50
2019-05-23T03:45:07.449Z,100615.52
2019-05-23T03:47:36.181Z,100615.94
2019-05-23T03:50:05.456Z,100613.80
2019-05-23T03:52:32.673Z,100611.22
2019-05-23T03:55:02.065Z,100614.23
2019-05-23T03:57:29.277Z,100616.37
2019-05-23T03:59:58.736Z,100615.52
2019-05-23T04:02:26.371Z,100618.52
2019-05-23T04:04:56.130Z,100611.64
2019-05-23T04:07:24.359Z,100608.61
2019-05-23T04:09:52.062Z,100606.03
2019-05-23T04:12:19.894Z,100607.31
2019-05-23T04:14:47.601Z,100603.00
2019-05-23T04:17:14.857Z,100603.39
2019-05-23T04:19:42.227Z,100600.37
2019-05-23T04:22:09.622Z,100601.61
2019-05-23T04:24:38.321Z,100603.75
2019-05-23T04:27:06.485Z,100601.58
2019-05-23T04:29:34.369Z,100604.98
2019-05-23T04:32:08.059Z,100600.66
2019-05-23T04:34:31.159Z,100601.94
2019-05-23T04:36:58.403Z,100598.86
2019-05-23T04:39:25.686Z,100602.70
2019-05-23T04:41:53.237Z,100587.14
2019-05-23T04:44:20.460Z,100594.93
2019-05-23T04:46:47.639Z,100591.80
2019-05-23T04:49:14.934Z,100594.72
2019-05-23T04:51:43.204Z,100598.14
2019-05-23T04:54:11.532Z,100603.02
2019-05-23T04:56:39.745Z,100599.40
2019-05-23T04:59:07.448Z,100601.02
2019-05-23T05:01:35.592Z,100606.94
2019-05-23T05:04:03.881Z,100606.05
2019-05-23T05:06:31.542Z,100603.70
2019-05-23T05:08:59.939Z,100606.58
2019-05-23T05:11:30.400Z,100601.62
2019-05-23T05:13:57.427Z,100602.77
2019-05-23T05:16:25.292Z,100606.95
2019-05-23T05:18:55.197Z,100601.75
2019-05-23T05:21:22.580Z,100603.98
2019-05-23T05:23:49.837Z,100611.02
2019-05-23T05:26:22.134Z,100609.64
2019-05-23T05:28:50.501Z,100607.70
2019-05-23T05:31:17.863Z,100607.18
2019-05-23T05:33:45.115Z,100604.20
2019-05-23T05:36:12.500Z,100606.07
2019-05-23T05:38:40.092Z,100607.06
2019-05-23T05:41:07.820Z,100616.45
2019-05-23T05:43:35.966Z,100617.88
2019-05-23T05:46:03.344Z,100610.61
2019-05-23T05:48:31.488Z,100616.00
2019-05-23T05:50:58.709Z,100618.05
2019-05-23T05:53:26.016Z,100621.21
2019-05-23T05:55:53.323Z,100619.84
2019-05-23T05:58:20.667Z,100624.98
2019-05-23T06:00:51.393Z,100624.26
2019-05-23T06:03:19.062Z,100625.34
2019-05-23T06:06:05.891Z,100631.72
2019-05-23T06:08:35.023Z,100628.55
2019-05-23T06:11:02.663Z,100628.77
2019-05-23T06:13:29.891Z,100633.30
2019-05-23T06:15:57.203Z,100632.42
2019-05-23T06:18:24.418Z,100635.05
2019-05-23T06:20:52.686Z,100639.72
2019-05-23T06:23:21.290Z,100632.16
2019-05-23T06:25:48.684Z,100625.55
2019-05-23T06:28:16.488Z,100627.84
2019-05-23T06:30:45.352Z,100630.66
2019-05-23T06:33:22.427Z,100626.05
2019-05-23T06:35:42.337Z,100634.44
2019-05-23T06:38:10.339Z,100634.05
2019-05-23T06:40:38.382Z,100630.11
2019-05-23T06:43:06.418Z,100627.20
2019-05-23T06:45:33.835Z,100625.99
2019-05-23T06:48:01.445Z,100624.31
2019-05-23T06:50:29.854Z,100623.13
2019-05-23T06:52:57.274Z,100628.69
2019-05-23T06:55:24.483Z,100625.35
2019-05-23T06:57:52.441Z,100628.88
2019-05-23T07:00:22.587Z,100623.78
2019-05-23T07:02:49.810Z,100626.50
2019-05-23T07:05:21.357Z,100632.52
2019-05-23T07:07:48.574Z,100627.55
2019-05-23T07:10:16.091Z,100632.96
2019-05-23T07:12:43.801Z,100628.29
2019-05-23T07:15:11.976Z,100626.74
2019-05-23T07:17:39.197Z,100624.41
2019-05-23T07:20:07.530Z,100626.78
2019-05-23T07:22:35.116Z,100627.70
2019-05-23T07:25:03.388Z,100627.16
2019-05-23T07:27:31.594Z,100620.80
2019-05-23T07:30:00.116Z,100628.46
2019-05-23T07:32:27.807Z,100628.27
2019-05-23T07:34:55.354Z,100622.72
2019-05-23T07:37:22.527Z,100627.41
2019-05-23T07:39:49.715Z,100620.97
2019-05-23T07:42:17.242Z,100622.59
2019-05-23T07:44:48.522Z,100623.23
2019-05-23T07:47:16.088Z,100625.47
2019-05-23T07:49:43.285Z,100625.30
2019-05-23T07:52:10.479Z,100626.23
2019-05-23T07:54:47.626Z,100625.59
2019-05-23T07:57:15.456Z,100630.64
2019-05-23T07:59:42.648Z,100625.23
2019-05-23T08:02:33.778Z,100630.98
2019-05-23T08:05:02.284Z,100632.95
2019-05-23T08:07:32.663Z,100633.66
2019-05-23T08:09:59.079Z,100632.47
2019-05-23T08:12:26.618Z,100628.67
2019-05-23T08:14:53.799Z,100637.03
2019-05-23T08:17:21.256Z,100631.52
2019-05-23T08:19:50.400Z,100622.20
2019-05-23T08:22:17.843Z,100628.42
2019-05-23T08:24:45.170Z,100624.37
2019-05-23T08:27:12.716Z,100622.58
2019-05-23T08:29:40.848Z,100620.23
2019-05-23T08:32:09.364Z,100624.09
2019-05-23T08:34:42.526Z,100626.09
2019-05-23T08:37:07.270Z,100629.28
2019-05-23T08:39:35.839Z,100624.73
2019-05-23T08:42:03.784Z,100629.99
2019-05-23T08:44:31.546Z,100621.19
2019-05-23T08:46:58.882Z,100620.89
2019-05-23T08:49:26.263Z,100631.02
2019-05-23T08:51:54.140Z,100627.52
2019-05-23T08:54:21.339Z,100621.55
2019-05-23T08:56:48.954Z,100621.38
2019-05-23T08:59:16.745Z,100619.84
2019-05-23T09:01:44.847Z,100621.38
2019-05-23T09:04:12.557Z,100620.47
2019-05-23T09:06:41.171Z,100618.66
2019-05-23T09:09:27.508Z,100612.61
2019-05-23T09:11:39.810Z,100608.75
2019-05-23T09:14:08.075Z,100610.81
2019-05-23T09:16:36.633Z,100612.30
2019-05-23T09:19:04.091Z,100616.48
2019-05-23T09:21:31.551Z,100620.13
2019-05-23T09:23:59.347Z,100612.88
2019-05-23T09:26:26.555Z,100611.97
2019-05-23T09:28:53.779Z,100611.69
2019-05-23T09:31:21.861Z,100611.69
2019-05-23T09:33:50.143Z,100604.77
2019-05-23T09:36:17.449Z,100608.91
2019-05-23T09:38:44.667Z,100599.09
2019-05-23T09:41:12.285Z,100595.05
2019-05-23T09:43:39.471Z,100600.81
2019-05-23T09:46:06.663Z,100599.98
2019-05-23T09:48:34.256Z,100597.58
2019-05-23T09:51:01.575Z,100593.98
2019-05-23T09:53:28.819Z,100593.71
2019-05-23T09:55:56.149Z,100587.50
2019-05-23T09:58:23.713Z,100588.97
2019-05-23T10:00:51.026Z,100583.57
2019-05-23T10:03:20.131Z,100589.85
2019-05-23T10:05:47.327Z,100583.75
2019-05-23T10:08:15.110Z,100588.22
2019-05-23T10:10:42.724Z,100580.81
2019-05-23T10:13:10.338Z,100586.31
2019-05-23T10:16:03.970Z,100579.63
2019-05-23T10:18:31.321Z,100579.63
2019-05-23T10:20:59.044Z,100575.76
2019-05-23T10:23:26.446Z,100570.50
2019-05-23T10:25:53.664Z,100566.19
2019-05-23T10:28:21.113Z,100569.64
2019-05-23T10:30:48.418Z,100569.64
2019-05-23T10:33:15.646Z,100573.47
2019-05-23T10:35:58.983Z,100566.02
2019-05-23T10:38:12.407Z,100570.91
2019-05-23T10:40:40.526Z,100573.94
2019-05-23T10:43:08.563Z,100560.95
2019-05-23T10:45:36.190Z,100557.22
2019-05-23T10:48:04.866Z,100553.02
2019-05-23T10:50:44.335Z,100551.48
2019-05-23T10:53:01.347Z,100553.75
2019-05-23T10:55:29.811Z,100554.03
2019-05-23T10:57:57.024Z,100552.98
2019-05-23T11:00:25.562Z,100546.87
2019-05-23T11:02:53.374Z,100543.13
2019-05-23T11:05:21.168Z,100540.93
2019-05-23T11:07:48.503Z,100546.36
2019-05-23T11:10:17.703Z,100541.75
2019-05-23T11:12:44.931Z,100540.99
2019-05-23T11:15:13.914Z,100530.11
2019-05-23T11:17:41.133Z,100532.63
2019-05-23T11:20:09.844Z,100532.87
2019-05-23T11:22:37.936Z,100527.65
2019-05-23T11:25:07.062Z,100524.51
2019-05-23T11:27:34.569Z,100518.29
2019-05-23T11:30:01.896Z,100522.52
2019-05-23T11:32:29.234Z,100518.34
2019-05-23T11:34:56.456Z,100518.19
2019-05-23T11:37:24.929Z,100511.03
2019-05-23T11:39:52.771Z,100502.77
2019-05-23T11:42:19.981Z,100505.83
2019-05-23T11:44:47.579Z,100507.69
2019-05-23T11:47:15.215Z,100504.63
2019-05-23T11:49:44.370Z,100503.30
2019-05-23T11:52:12.101Z,100499.23
2019-05-23T11:54:39.437Z,100496.58
2019-05-23T11:57:08.887Z,100497.06
2019-05-23T11:59:36.094Z,100499.39
2019-05-23T12:02:41.211Z,100493.44
2019-05-23T12:05:15.813Z,100492.64
2019-05-23T12:07:43.630Z,100494.69
2019-05-23T12:10:11.147Z,100490.91
2019-05-23T12:12:38.381Z,100485.95
2019-05-23T12:15:11.226Z,100485.60
2019-05-23T12:17:39.249Z,100487.33
2019-05-23T12:20:06.857Z,100483.98
2019-05-23T12:22:34.643Z,100489.30
2019-05-23T12:25:20.088Z,100479.20
2019-05-23T12:27:32.262Z,100479.30
2019-05-23T12:29:59.637Z,100483.53
2019-05-23T12:32:26.921Z,100480.14
2019-05-23T12:35:09.251Z,100470.38
2019-05-23T12:37:23.576Z,100468.38
2019-05-23T12:39:51.491Z,100470.45
2019-05-23T12:42:18.781Z,100468.83
2019-05-23T12:44:46.373Z,100459.95
2019-05-23T12:47:24.571Z,100461.08
2019-05-23T12:49:59.794Z,100453.02
2019-05-23T12:52:27.130Z,100455.80
2019-05-23T12:54:54.945Z,100453.89
2019-05-23T12:57:22.726Z,100452.58
2019-05-23T12:59:50.752Z,100454.80
2019-05-23T13:02:24.708Z,100452.77
2019-05-23T13:04:52.072Z,100451.77
2019-05-23T13:07:35.127Z,100442.28
2019-05-23T13:09:48.510Z,100450.33
2019-05-23T13:12:16.620Z,100444.56
2019-05-23T13:14:44.814Z,100442.04
2019-05-23T13:17:12.282Z,100435.54
2019-05-23T13:19:39.473Z,100436.72
2019-05-23T13:22:08.933Z,100434.42
2019-05-23T13:24:51.271Z,100432.09
2019-05-23T13:27:05.663Z,100427.19
2019-05-23T13:29:35.817Z,100425.27
2019-05-23T13:32:03.648Z,100419.23
2019-05-23T13:34:30.866Z,100422.42
2019-05-23T13:36:58.085Z,100425.25
2019-05-23T13:39:26.070Z,100428.41
2019-05-23T13:41:53.836Z,100422.91
2019-05-23T13:44:32.774Z,100424.59
2019-05-23T13:46:50.816Z,100421.06
2019-05-23T13:49:18.302Z,100421.61
2019-05-23T13:51:45.652Z,100419.33
2019-05-23T13:54:12.970Z,100421.48
2019-05-23T13:56:40.862Z,100415.63
2019-05-23T13:59:08.130Z,100412.04
2019-05-23T14:01:36.342Z,100416.09
2019-05-23T14:04:04.653Z,100406.30
2019-05-23T14:06:32.317Z,100409.96
2019-05-23T14:08:59.566Z,100405.22
2019-05-23T14:11:26.765Z,100398.25
2019-05-23T14:14:00.032Z,100398.73
2019-05-23T14:16:23.385Z,100397.78
2019-05-23T14:18:50.985Z,100400.06
2019-05-23T14:21:18.374Z,100404.81
2019-05-23T14:23:46.085Z,100399.87
2019-05-23T14:26:13.453Z,100404.22
2019-05-23T14:28:41.110Z,100399.77
2019-05-23T14:31:16.141Z,100389.33
2019-05-23T14:33:53.301Z,100393.55
2019-05-23T14:36:43.802Z,100388.48
2019-05-23T14:39:18.668Z,100396.33
2019-05-23T14:41:55.571Z,100397.80
2019-05-23T14:44:22.905Z,100389.03
2019-05-23T14:47:12.704Z,100392.31
2019-05-23T14:49:45.115Z,100385.91
2019-05-23T14:52:20.129Z,100389.73
2019-05-23T14:54:52.195Z,100379.70
2019-05-23T14:57:19.508Z,100377.86
2019-05-23T14:59:47.070Z,100381.77
2019-05-23T15:02:17.754Z,100375.84
2019-05-23T15:04:45.084Z,100373.06
2019-05-23T15:07:12.490Z,100366.86
2019-05-23T15:09:40.186Z,100357.78
2019-05-23T15:12:08.612Z,100357.78
2019-05-23T15:14:35.824Z,100368.43
2019-05-23T15:17:03.624Z,100356.86
2019-05-23T15:19:41.684Z,100361.59
2019-05-23T15:22:00.389Z,100355.31
2019-05-23T15:24:28.512Z,100355.31
2019-05-23T15:26:55.737Z,100355.62
2019-05-23T15:29:23.325Z,100359.20
2019-05-23T15:32:01.613Z,100353.20
2019-05-23T15:34:19.713Z,100346.67
2019-05-23T15:36:46.942Z,100348.47
2019-05-23T15:39:14.874Z,100347.84
2019-05-23T15:41:42.081Z,100347.66
2019-05-23T15:44:23.714Z,100349.23
2019-05-23T15:46:38.841Z,100344.88
2019-05-23T15:49:08.078Z,100342.48
2019-05-23T15:51:41.449Z,100342.48
2019-05-23T15:54:15.599Z,100339.46
2019-05-23T15:56:50.783Z,100337.70
2019-05-23T15:59:25.694Z,100338.80
2019-05-23T16:02:12.743Z,100338.55
2019-05-23T16:04:41.024Z,100333.09
2019-05-23T16:07:10.315Z,100328.67
2019-05-23T16:09:37.778Z,100328.67
2019-05-23T16:12:06.091Z,100328.95
2019-05-23T16:14:33.298Z,100321.19
2019-05-23T16:17:00.927Z,100316.85
2019-05-23T16:19:28.235Z,100314.02
2019-05-23T16:21:55.844Z,100317.12
2019-05-23T16:24:23.222Z,100319.80
2019-05-23T16:26:50.650Z,100310.44
2019-05-23T16:29:18.957Z,100312.30
2019-05-23T16:31:46.744Z,100306.28
2019-05-23T16:34:13.967Z,100317.91
2019-05-23T16:36:41.590Z,100316.98
2019-05-23T16:39:08.859Z,100310.51
2019-05-23T16:41:36.615Z,100315.00
2019-05-23T16:44:04.139Z,100312.00
2019-05-23T16:46:31.391Z,100312.56
2019-05-23T16:48:59.250Z,100309.58
2019-05-23T16:51:26.954Z,100307.47
2019-05-23T16:53:54.304Z,100308.95
2019-05-23T16:56:36.227Z,100306.05
2019-05-23T16:59:17.714Z,100300.72
2019-05-23T17:02:00.423Z,100306.50
2019-05-23T17:04:32.344Z,100308.05
2019-05-23T17:07:19.214Z,100313.45
2019-05-23T17:10:07.628Z,100311.84
2019-05-23T17:12:55.039Z,100306.69
2019-05-23T17:15:41.249Z,100310.25
2019-05-23T17:18:27.134Z,100307.78
2019-05-23T17:21:03.602Z,100308.27
2019-05-23T17:24:05.673Z,100305.88
2019-05-23T17:26:43.587Z,100305.23
2019-05-23T17:29:18.909Z,100296.66
2019-05-23T17:31:47.961Z,100297.91
2019-05-23T17:34:15.696Z,100299.39
2019-05-23T17:36:43.098Z,100294.64
2019-05-23T17:39:12.246Z,100294.44
2019-05-23T17:41:39.466Z,100287.27
2019-05-23T17:44:06.983Z,100284.84
2019-05-23T17:46:34.498Z,100291.03
2019-05-23T17:49:02.106Z,100285.70
2019-05-23T17:51:29.416Z,100279.43
2019-05-23T17:53:56.633Z,100282.36
2019-05-23T17:56:24.183Z,100281.64
2019-05-23T17:58:51.690Z,100280.86
2019-05-23T18:01:19.781Z,100286.81
2019-05-23T18:03:46.962Z,100280.60
2019-05-23T18:06:14.330Z,100278.91
2019-05-23T18:08:42.146Z,100278.00
2019-05-23T18:11:10.079Z,100276.03
2019-05-23T18:13:37.290Z,100278.83
2019-05-23T18:16:04.986Z,100276.31
2019-05-23T18:18:32.790Z,100274.42
2019-05-23T18:21:00.263Z,100281.53
2019-05-23T18:23:27.470Z,100275.70
2019-05-23T18:25:54.895Z,100277.48
2019-05-23T18:28:22.392Z,100278.58
2019-05-23T18:30:56.941Z,100275.83
2019-05-23T18:33:26.609Z,100277.20
2019-05-23T18:35:55.852Z,100274.95
2019-05-23T18:38:23.980Z,100268.70
2019-05-23T18:41:02.321Z,100274.83
2019-05-23T18:43:21.900Z,100272.00
2019-05-23T18:45:51.100Z,100269.40
2019-05-23T18:48:18.431Z,100269.35
2019-05-23T18:50:46.088Z,100269.77
2019-05-23T18:53:13.345Z,100269.19
2019-05-23T18:55:40.639Z,100269.91
2019-05-23T18:58:08.349Z,100267.70
2019-05-23T19:00:59.354Z,100269.83
2019-05-23T19:03:27.006Z,100270.29
2019-05-23T19:05:55.119Z,100265.88
2019-05-23T19:08:23.087Z,100266.04
2019-05-23T19:10:50.483Z,100266.42
2019-05-23T19:13:17.647Z,100271.69
2019-05-23T19:15:45.160Z,100272.02
2019-05-23T19:18:12.687Z,100278.13
2019-05-23T19:20:40.946Z,100278.13
2019-05-23T19:23:08.984Z,100273.20
2019-05-23T19:25:36.983Z,100280.87
2019-05-23T19:28:04.440Z,100275.90
2019-05-23T19:30:31.701Z,100277.34
2019-05-23T19:32:59.246Z,100275.91
2019-05-23T19:35:27.040Z,100284.25
2019-05-23T19:37:54.271Z,100278.56
2019-05-23T19:40:21.531Z,100282.23
2019-05-23T19:42:49.540Z,100278.53
2019-05-23T19:45:16.907Z,100278.47
2019-05-23T19:47:44.112Z,100272.76
2019-05-23T19:50:11.846Z,100278.81
2019-05-23T19:52:40.008Z,100277.24
2019-05-23T19:55:07.293Z,100276.59
2019-05-23T19:57:35.566Z,100273.64
2019-05-23T20:00:05.985Z,100273.31
2019-05-23T20:02:41.601Z,100280.42
2019-05-23T20:05:17.456Z,100278.47
2019-05-23T20:07:44.946Z,100276.28
2019-05-23T20:10:14.826Z,100277.23
2019-05-23T20:12:42.413Z,100277.11
2019-05-23T20:15:10.048Z,100281.28
2019-05-23T20:17:37.279Z,100282.10
2019-05-23T20:20:04.628Z,100282.62
2019-05-23T20:22:31.933Z,100284.69
2019-05-23T20:24:59.144Z,100283.75
2019-05-23T20:27:26.361Z,100282.19
2019-05-23T20:29:53.555Z,100275.73
2019-05-23T20:32:21.579Z,100280.81
2019-05-23T20:34:48.787Z,100286.58
2019-05-23T20:37:16.197Z,100287.38
2019-05-23T20:39:43.640Z,100287.02
2019-05-23T20:42:12.193Z,100298.48
2019-05-23T20:44:39.762Z,100304.75
2019-05-23T20:47:07.753Z,100309.94
2019-05-23T20:49:35.340Z,100308.20
2019-05-23T20:52:02.564Z,100312.71
2019-05-23T20:54:33.332Z,100309.41
2019-05-23T20:56:59.105Z,100311.57
2019-05-23T20:59:29.021Z,100309.27
2019-05-23T21:01:56.282Z,100311.48
2019-05-23T21:04:23.470Z,100303.91
2019-05-23T21:06:51.502Z,100307.61
2019-05-23T21:09:19.156Z,100307.87
2019-05-23T21:11:46.381Z,100301.18
2019-05-23T21:14:13.563Z,100303.95
2019-05-23T21:16:40.764Z,100308.03
2019-05-23T21:19:08.389Z,100304.70
2019-05-23T21:21:35.749Z,100302.42
2019-05-23T21:24:03.141Z,100296.14
2019-05-23T21:26:30.430Z,100301.02
2019-05-23T21:28:58.081Z,100297.52
2019-05-23T21:31:25.609Z,100292.44
2019-05-23T21:33:52.808Z,100296.50
2019-05-23T21:36:20.474Z,100296.45
2019-05-23T21:38:47.680Z,100293.09
2019-05-23T21:41:15.672Z,100293.61
2019-05-23T21:43:43.693Z,100295.37
2019-05-23T21:46:11.408Z,100298.12
2019-05-23T21:48:38.630Z,100293.93
2019-05-23T21:51:06.032Z,100295.86
2019-05-23T21:53:33.257Z,100293.24
2019-05-23T21:56:00.953Z,100287.62
2019-05-23T21:58:28.177Z,100286.00
2019-05-23T22:01:27.406Z,100290.48
2019-05-23T22:04:14.499Z,100289.67
2019-05-23T22:06:45.565Z,100296.55
2019-05-23T22:09:13.260Z,100294.93
2019-05-23T22:11:40.588Z,100292.13
2019-05-23T22:14:08.249Z,100289.73
2019-05-23T22:16:36.195Z,100298.63
2019-05-23T22:19:05.613Z,100292.72
2019-05-23T22:21:32.931Z,100292.51
2019-05-23T22:24:00.732Z,100290.71
2019-05-23T22:26:28.141Z,100285.34
2019-05-23T22:28:55.854Z,100282.69
2019-05-23T22:31:23.559Z,100286.72
2019-05-23T22:33:57.526Z,100280.11
2019-05-23T22:36:24.827Z,100278.36
2019-05-23T22:38:52.779Z,100280.89
2019-05-23T22:41:20.042Z,100277.17
2019-05-23T22:43:47.713Z,100282.87
2019-05-23T22:46:15.437Z,100289.58
2019-05-23T22:48:43.055Z,100284.88
2019-05-23T22:51:10.268Z,100287.71
2019-05-23T22:53:37.479Z,100284.33
2019-05-23T22:56:05.158Z,100285.70
2019-05-23T22:58:32.693Z,100290.27
2019-05-23T23:00:59.976Z,100293.88
2019-05-23T23:03:27.427Z,100287.76
2019-05-23T23:05:54.666Z,100285.26
2019-05-23T23:08:23.418Z,100283.95
2019-05-23T23:10:50.679Z,100287.38
2019-05-23T23:13:17.870Z,100299.81
2019-05-23T23:15:45.140Z,100294.00
2019-05-23T23:18:12.773Z,100297.63
2019-05-23T23:20:39.966Z,100290.30
2019-05-23T23:23:07.222Z,100294.20
2019-05-23T23:25:34.436Z,100284.78
2019-05-23T23:28:01.969Z,100279.33
2019-05-23T23:30:32.721Z,100280.67
2019-05-23T23:32:59.925Z,100283.20
2019-05-23T23:35:27.117Z,100281.36
2019-05-23T23:37:54.329Z,100281.42
2019-05-23T23:40:21.560Z,100275.35
2019-05-23T23:42:48.779Z,100280.74
2019-05-23T23:45:35.077Z,100274.05
2019-05-23T23:48:20.702Z,100281.28
2019-05-23T23:51:06.907Z,100282.92
2019-05-23T23:53:52.472Z,100280.72
2019-05-23T23:56:38.854Z,100279.83
2019-05-23T23:59:05.730Z,100277.31
